sensor_id;sensor_type;location;lat;lon;timestamp;P1;durP1;ratioP1;P2;durP2;ratioP2
2570;SDS011;1295;51.130;6.732;2022-10-22T00:00:47;63.10;;;24.97;;
2570;SDS011;1295;51.130;6.732;2022-10-22T00:03:13;63.27;;;27.70;;
2570;SDS011;1295;51.130;6.732;2022-10-22T00:05:39;63.70;;;26.50;;
2570;SDS011;1295;51.130;6.732;2022-10-22T00:08:04;60.57;;;25.17;;
2570;SDS011;1295;51.130;6.732;2022-10-22T00:10:30;63.80;;;27.07;;
2570;SDS011;1295;51.130;6.732;2022-10-22T00:12:55;59.67;;;23.57;;
2570;SDS011;1295;51.130;6.732;2022-10-22T00:15:21;64.30;;;29.60;;
2570;SDS011;1295;51.130;6.732;2022-10-22T00:17:47;64.40;;;29.83;;
2570;SDS011;1295;51.130;6.732;2022-10-22T00:20:12;64.30;;;30.73;;
2570;SDS011;1295;51.130;6.732;2022-10-22T00:22:38;65.97;;;28.43;;
2570;SDS011;1295;51.130;6.732;2022-10-22T00:25:04;61.57;;;27.40;;
2570;SDS011;1295;51.130;6.732;2022-10-22T00:27:30;63.10;;;28.00;;
2570;SDS011;1295;51.130;6.732;2022-10-22T00:29:55;68.77;;;32.77;;
2570;SDS011;1295;51.130;6.732;2022-10-22T00:32:21;61.87;;;28.67;;
2570;SDS011;1295;51.130;6.732;2022-10-22T00:34:47;62.80;;;28.40;;
2570;SDS011;1295;51.130;6.732;2022-10-22T00:37:12;68.90;;;27.90;;
2570;SDS011;1295;51.130;6.732;2022-10-22T00:39:38;64.30;;;26.40;;
2570;SDS011;1295;51.130;6.732;2022-10-22T00:42:04;60.13;;;25.07;;
2570;SDS011;1295;51.130;6.732;2022-10-22T00:47:07;69.73;;;27.27;;
2570;SDS011;1295;51.130;6.732;2022-10-22T00:49:34;60.40;;;24.93;;
2570;SDS011;1295;51.130;6.732;2022-10-22T00:51:59;58.87;;;22.50;;
2570;SDS011;1295;51.130;6.732;2022-10-22T00:54:25;61.33;;;22.13;;
2570;SDS011;1295;51.130;6.732;2022-10-22T00:56:50;61.97;;;18.23;;
2570;SDS011;1295;51.130;6.732;2022-10-22T00:59:16;62.30;;;19.20;;
2570;SDS011;1295;51.130;6.732;2022-10-22T01:01:42;62.40;;;17.87;;
2570;SDS011;1295;51.130;6.732;2022-10-22T01:04:08;62.13;;;15.40;;
2570;SDS011;1295;51.130;6.732;2022-10-22T01:06:34;63.80;;;14.33;;
2570;SDS011;1295;51.130;6.732;2022-10-22T01:11:42;62.23;;;15.80;;
2570;SDS011;1295;51.130;6.732;2022-10-22T01:14:30;61.63;;;15.23;;
2570;SDS011;1295;51.130;6.732;2022-10-22T01:17:05;65.60;;;17.10;;
2570;SDS011;1295;51.130;6.732;2022-10-22T01:20:17;63.97;;;15.50;;
2570;SDS011;1295;51.130;6.732;2022-10-22T01:22:27;58.60;;;14.60;;
2570;SDS011;1295;51.130;6.732;2022-10-22T01:24:55;60.80;;;14.63;;
2570;SDS011;1295;51.130;6.732;2022-10-22T01:27:24;65.63;;;12.93;;
2570;SDS011;1295;51.130;6.732;2022-10-22T01:29:50;62.90;;;12.40;;
2570;SDS011;1295;51.130;6.732;2022-10-22T01:32:18;59.67;;;17.00;;
2570;SDS011;1295;51.130;6.732;2022-10-22T01:34:43;59.03;;;20.30;;
2570;SDS011;1295;51.130;6.732;2022-10-22T01:37:07;64.80;;;20.10;;
2570;SDS011;1295;51.130;6.732;2022-10-22T01:39:33;59.17;;;21.67;;
2570;SDS011;1295;51.130;6.732;2022-10-22T01:41:58;62.60;;;14.23;;
2570;SDS011;1295;51.130;6.732;2022-10-22T01:44:26;57.80;;;15.63;;
2570;SDS011;1295;51.130;6.732;2022-10-22T01:46:54;57.00;;;15.47;;
2570;SDS011;1295;51.130;6.732;2022-10-22T01:49:22;58.17;;;13.27;;
2570;SDS011;1295;51.130;6.732;2022-10-22T01:51:48;60.30;;;14.40;;
2570;SDS011;1295;51.130;6.732;2022-10-22T01:54:20;57.13;;;15.37;;
2570;SDS011;1295;51.130;6.732;2022-10-22T02:00:00;60.13;;;16.13;;
2570;SDS011;1295;51.130;6.732;2022-10-22T02:05:25;60.73;;;15.87;;
2570;SDS011;1295;51.130;6.732;2022-10-22T02:08:07;62.43;;;14.40;;
2570;SDS011;1295;51.130;6.732;2022-10-22T02:10:31;60.67;;;12.47;;
2570;SDS011;1295;51.130;6.732;2022-10-22T02:12:57;54.77;;;13.73;;
2570;SDS011;1295;51.130;6.732;2022-10-22T02:15:23;57.40;;;11.13;;
2570;SDS011;1295;51.130;6.732;2022-10-22T02:17:48;61.23;;;13.97;;
2570;SDS011;1295;51.130;6.732;2022-10-22T02:20:16;64.37;;;11.83;;
2570;SDS011;1295;51.130;6.732;2022-10-22T02:22:40;59.07;;;12.93;;
2570;SDS011;1295;51.130;6.732;2022-10-22T02:25:07;58.30;;;12.20;;
2570;SDS011;1295;51.130;6.732;2022-10-22T02:27:39;56.57;;;15.93;;
2570;SDS011;1295;51.130;6.732;2022-10-22T02:30:05;61.53;;;13.63;;
2570;SDS011;1295;51.130;6.732;2022-10-22T02:32:42;56.17;;;15.30;;
2570;SDS011;1295;51.130;6.732;2022-10-22T02:35:18;60.03;;;13.40;;
2570;SDS011;1295;51.130;6.732;2022-10-22T02:37:43;56.77;;;12.23;;
2570;SDS011;1295;51.130;6.732;2022-10-22T02:40:08;58.60;;;13.23;;
2570;SDS011;1295;51.130;6.732;2022-10-22T02:42:34;63.33;;;12.60;;
2570;SDS011;1295;51.130;6.732;2022-10-22T02:45:00;55.83;;;11.27;;
2570;SDS011;1295;51.130;6.732;2022-10-22T02:47:25;55.57;;;11.60;;
2570;SDS011;1295;51.130;6.732;2022-10-22T02:49:51;62.90;;;12.50;;
2570;SDS011;1295;51.130;6.732;2022-10-22T02:52:17;58.67;;;12.73;;
2570;SDS011;1295;51.130;6.732;2022-10-22T02:54:42;57.00;;;12.13;;
2570;SDS011;1295;51.130;6.732;2022-10-22T02:57:08;59.30;;;12.60;;
2570;SDS011;1295;51.130;6.732;2022-10-22T02:59:34;65.30;;;14.10;;
2570;SDS011;1295;51.130;6.732;2022-10-22T03:01:59;60.50;;;12.97;;
2570;SDS011;1295;51.130;6.732;2022-10-22T03:04:25;57.70;;;11.80;;
2570;SDS011;1295;51.130;6.732;2022-10-22T03:06:51;59.17;;;13.33;;
2570;SDS011;1295;51.130;6.732;2022-10-22T03:09:24;62.00;;;15.93;;
2570;SDS011;1295;51.130;6.732;2022-10-22T03:11:50;56.30;;;15.13;;
2570;SDS011;1295;51.130;6.732;2022-10-22T03:14:16;59.87;;;16.90;;
2570;SDS011;1295;51.130;6.732;2022-10-22T03:16:41;60.53;;;19.80;;
2570;SDS011;1295;51.130;6.732;2022-10-22T03:19:07;59.43;;;13.10;;
2570;SDS011;1295;51.130;6.732;2022-10-22T03:21:34;58.27;;;13.43;;
2570;SDS011;1295;51.130;6.732;2022-10-22T03:23:59;61.80;;;13.10;;
2570;SDS011;1295;51.130;6.732;2022-10-22T03:26:24;60.07;;;14.00;;
2570;SDS011;1295;51.130;6.732;2022-10-22T03:28:50;64.60;;;13.23;;
2570;SDS011;1295;51.130;6.732;2022-10-22T03:31:16;63.30;;;14.73;;
2570;SDS011;1295;51.130;6.732;2022-10-22T03:33:42;56.27;;;11.57;;
2570;SDS011;1295;51.130;6.732;2022-10-22T03:36:07;58.30;;;13.20;;
2570;SDS011;1295;51.130;6.732;2022-10-22T03:38:43;58.60;;;15.63;;
2570;SDS011;1295;51.130;6.732;2022-10-22T03:41:09;75.27;;;14.23;;
2570;SDS011;1295;51.130;6.732;2022-10-22T03:43:35;58.87;;;14.20;;
2570;SDS011;1295;51.130;6.732;2022-10-22T03:46:00;55.67;;;13.00;;
2570;SDS011;1295;51.130;6.732;2022-10-22T03:48:26;61.43;;;14.13;;
2570;SDS011;1295;51.130;6.732;2022-10-22T03:50:52;56.40;;;11.07;;
2570;SDS011;1295;51.130;6.732;2022-10-22T03:53:17;56.60;;;12.07;;
2570;SDS011;1295;51.130;6.732;2022-10-22T03:55:43;57.93;;;11.17;;
2570;SDS011;1295;51.130;6.732;2022-10-22T03:58:08;60.43;;;13.80;;
2570;SDS011;1295;51.130;6.732;2022-10-22T04:00:34;59.90;;;12.57;;
2570;SDS011;1295;51.130;6.732;2022-10-22T04:03:00;58.60;;;12.63;;
2570;SDS011;1295;51.130;6.732;2022-10-22T04:05:25;67.63;;;14.10;;
2570;SDS011;1295;51.130;6.732;2022-10-22T04:07:51;60.03;;;16.10;;
2570;SDS011;1295;51.130;6.732;2022-10-22T04:10:16;62.90;;;22.80;;
2570;SDS011;1295;51.130;6.732;2022-10-22T04:12:42;63.30;;;20.87;;
2570;SDS011;1295;51.130;6.732;2022-10-22T04:15:08;58.37;;;17.33;;
2570;SDS011;1295;51.130;6.732;2022-10-22T04:17:34;66.97;;;19.80;;
2570;SDS011;1295;51.130;6.732;2022-10-22T04:19:59;64.20;;;20.47;;
2570;SDS011;1295;51.130;6.732;2022-10-22T04:22:25;64.43;;;21.57;;
2570;SDS011;1295;51.130;6.732;2022-10-22T04:24:51;63.60;;;21.60;;
2570;SDS011;1295;51.130;6.732;2022-10-22T04:27:16;60.10;;;21.87;;
2570;SDS011;1295;51.130;6.732;2022-10-22T04:29:43;66.70;;;21.77;;
2570;SDS011;1295;51.130;6.732;2022-10-22T04:32:08;63.60;;;20.37;;
2570;SDS011;1295;51.130;6.732;2022-10-22T04:34:34;61.23;;;19.60;;
2570;SDS011;1295;51.130;6.732;2022-10-22T04:37:00;63.10;;;20.20;;
2570;SDS011;1295;51.130;6.732;2022-10-22T04:39:25;61.93;;;19.97;;
2570;SDS011;1295;51.130;6.732;2022-10-22T04:41:52;60.10;;;20.40;;
2570;SDS011;1295;51.130;6.732;2022-10-22T04:44:17;61.93;;;20.87;;
2570;SDS011;1295;51.130;6.732;2022-10-22T04:46:43;68.03;;;26.00;;
2570;SDS011;1295;51.130;6.732;2022-10-22T04:49:08;59.33;;;21.30;;
2570;SDS011;1295;51.130;6.732;2022-10-22T04:51:34;65.13;;;25.90;;
2570;SDS011;1295;51.130;6.732;2022-10-22T04:54:00;60.47;;;25.50;;
2570;SDS011;1295;51.130;6.732;2022-10-22T04:56:27;65.17;;;24.03;;
2570;SDS011;1295;51.130;6.732;2022-10-22T04:58:53;59.80;;;24.93;;
2570;SDS011;1295;51.130;6.732;2022-10-22T05:01:20;67.23;;;23.37;;
2570;SDS011;1295;51.130;6.732;2022-10-22T05:03:45;60.10;;;20.50;;
2570;SDS011;1295;51.130;6.732;2022-10-22T05:06:11;62.57;;;26.23;;
2570;SDS011;1295;51.130;6.732;2022-10-22T05:08:37;62.90;;;23.00;;
2570;SDS011;1295;51.130;6.732;2022-10-22T05:11:11;61.37;;;25.70;;
2570;SDS011;1295;51.130;6.732;2022-10-22T05:13:36;60.47;;;21.73;;
2570;SDS011;1295;51.130;6.732;2022-10-22T05:16:01;61.47;;;19.93;;
2570;SDS011;1295;51.130;6.732;2022-10-22T05:18:27;61.70;;;25.10;;
2570;SDS011;1295;51.130;6.732;2022-10-22T05:20:53;67.27;;;27.00;;
2570;SDS011;1295;51.130;6.732;2022-10-22T05:23:18;63.47;;;31.47;;
2570;SDS011;1295;51.130;6.732;2022-10-22T05:25:44;65.30;;;31.53;;
2570;SDS011;1295;51.130;6.732;2022-10-22T05:28:10;60.90;;;27.10;;
2570;SDS011;1295;51.130;6.732;2022-10-22T05:30:35;65.93;;;28.70;;
2570;SDS011;1295;51.130;6.732;2022-10-22T05:33:01;64.20;;;29.70;;
2570;SDS011;1295;51.130;6.732;2022-10-22T05:35:27;67.63;;;32.47;;
2570;SDS011;1295;51.130;6.732;2022-10-22T05:37:52;62.53;;;27.93;;
2570;SDS011;1295;51.130;6.732;2022-10-22T05:40:18;63.60;;;24.40;;
2570;SDS011;1295;51.130;6.732;2022-10-22T05:42:43;63.97;;;28.67;;
2570;SDS011;1295;51.130;6.732;2022-10-22T05:45:09;61.47;;;28.67;;
2570;SDS011;1295;51.130;6.732;2022-10-22T05:47:35;70.00;;;27.90;;
2570;SDS011;1295;51.130;6.732;2022-10-22T05:50:01;64.57;;;26.63;;
2570;SDS011;1295;51.130;6.732;2022-10-22T05:52:27;67.47;;;27.50;;
2570;SDS011;1295;51.130;6.732;2022-10-22T05:54:53;74.63;;;25.57;;
2570;SDS011;1295;51.130;6.732;2022-10-22T05:57:18;61.97;;;24.00;;
2570;SDS011;1295;51.130;6.732;2022-10-22T05:59:44;63.47;;;18.70;;
2570;SDS011;1295;51.130;6.732;2022-10-22T06:02:10;63.63;;;28.97;;
2570;SDS011;1295;51.130;6.732;2022-10-22T06:04:35;65.80;;;32.07;;
2570;SDS011;1295;51.130;6.732;2022-10-22T06:07:02;62.07;;;32.73;;
2570;SDS011;1295;51.130;6.732;2022-10-22T06:09:29;63.17;;;30.57;;
2570;SDS011;1295;51.130;6.732;2022-10-22T06:11:55;63.97;;;33.40;;
2570;SDS011;1295;51.130;6.732;2022-10-22T06:14:21;65.90;;;31.90;;
2570;SDS011;1295;51.130;6.732;2022-10-22T06:16:47;66.07;;;31.57;;
2570;SDS011;1295;51.130;6.732;2022-10-22T06:19:14;63.87;;;28.27;;
2570;SDS011;1295;51.130;6.732;2022-10-22T06:21:40;66.23;;;27.83;;
2570;SDS011;1295;51.130;6.732;2022-10-22T06:24:05;61.57;;;20.97;;
2570;SDS011;1295;51.130;6.732;2022-10-22T06:26:32;65.67;;;26.90;;
2570;SDS011;1295;51.130;6.732;2022-10-22T06:28:58;63.90;;;29.63;;
2570;SDS011;1295;51.130;6.732;2022-10-22T06:31:25;63.90;;;29.37;;
2570;SDS011;1295;51.130;6.732;2022-10-22T06:33:50;64.57;;;32.00;;
2570;SDS011;1295;51.130;6.732;2022-10-22T06:36:18;65.47;;;32.93;;
2570;SDS011;1295;51.130;6.732;2022-10-22T06:38:42;63.60;;;31.90;;
2570;SDS011;1295;51.130;6.732;2022-10-22T06:41:09;66.73;;;33.13;;
2570;SDS011;1295;51.130;6.732;2022-10-22T06:43:39;65.73;;;35.20;;
2570;SDS011;1295;51.130;6.732;2022-10-22T06:46:06;65.30;;;38.30;;
2570;SDS011;1295;51.130;6.732;2022-10-22T06:48:31;65.00;;;40.60;;
2570;SDS011;1295;51.130;6.732;2022-10-22T06:50:59;65.60;;;38.33;;
2570;SDS011;1295;51.130;6.732;2022-10-22T06:53:22;63.90;;;34.53;;
2570;SDS011;1295;51.130;6.732;2022-10-22T06:55:47;66.87;;;38.60;;
2570;SDS011;1295;51.130;6.732;2022-10-22T06:58:13;69.67;;;40.37;;
2570;SDS011;1295;51.130;6.732;2022-10-22T07:00:39;66.57;;;40.70;;
2570;SDS011;1295;51.130;6.732;2022-10-22T07:03:04;65.97;;;39.33;;
2570;SDS011;1295;51.130;6.732;2022-10-22T07:05:32;70.23;;;41.80;;
2570;SDS011;1295;51.130;6.732;2022-10-22T07:07:56;64.43;;;36.07;;
2570;SDS011;1295;51.130;6.732;2022-10-22T07:10:21;63.10;;;34.50;;
2570;SDS011;1295;51.130;6.732;2022-10-22T07:12:47;67.50;;;30.00;;
2570;SDS011;1295;51.130;6.732;2022-10-22T07:15:13;67.80;;;33.03;;
2570;SDS011;1295;51.130;6.732;2022-10-22T07:17:38;63.73;;;21.33;;
2570;SDS011;1295;51.130;6.732;2022-10-22T07:20:04;61.40;;;22.20;;
2570;SDS011;1295;51.130;6.732;2022-10-22T07:22:31;63.43;;;19.37;;
2570;SDS011;1295;51.130;6.732;2022-10-22T07:24:57;62.90;;;18.13;;
2570;SDS011;1295;51.130;6.732;2022-10-22T07:27:23;58.50;;;15.93;;
2570;SDS011;1295;51.130;6.732;2022-10-22T07:29:48;58.90;;;15.43;;
2570;SDS011;1295;51.130;6.732;2022-10-22T07:32:14;59.80;;;15.43;;
2570;SDS011;1295;51.130;6.732;2022-10-22T07:34:40;58.57;;;13.83;;
2570;SDS011;1295;51.130;6.732;2022-10-22T07:37:06;57.60;;;12.43;;
2570;SDS011;1295;51.130;6.732;2022-10-22T07:39:32;59.53;;;12.90;;
2570;SDS011;1295;51.130;6.732;2022-10-22T07:41:57;58.50;;;11.40;;
2570;SDS011;1295;51.130;6.732;2022-10-22T07:44:23;63.07;;;14.20;;
2570;SDS011;1295;51.130;6.732;2022-10-22T07:46:49;56.20;;;12.13;;
2570;SDS011;1295;51.130;6.732;2022-10-22T07:49:14;57.70;;;13.10;;
2570;SDS011;1295;51.130;6.732;2022-10-22T07:51:40;62.50;;;13.17;;
2570;SDS011;1295;51.130;6.732;2022-10-22T07:54:05;62.50;;;13.50;;
2570;SDS011;1295;51.130;6.732;2022-10-22T07:56:31;62.67;;;14.23;;
2570;SDS011;1295;51.130;6.732;2022-10-22T07:58:57;59.33;;;15.90;;
2570;SDS011;1295;51.130;6.732;2022-10-22T08:01:22;63.70;;;13.33;;
2570;SDS011;1295;51.130;6.732;2022-10-22T08:03:48;57.57;;;9.80;;
2570;SDS011;1295;51.130;6.732;2022-10-22T08:06:14;60.00;;;9.33;;
2570;SDS011;1295;51.130;6.732;2022-10-22T08:08:40;62.70;;;12.87;;
2570;SDS011;1295;51.130;6.732;2022-10-22T08:11:05;55.77;;;9.47;;
2570;SDS011;1295;51.130;6.732;2022-10-22T08:13:31;61.43;;;11.10;;
2570;SDS011;1295;51.130;6.732;2022-10-22T08:15:57;57.50;;;9.40;;
2570;SDS011;1295;51.130;6.732;2022-10-22T08:18:22;59.17;;;9.13;;
2570;SDS011;1295;51.130;6.732;2022-10-22T08:20:47;61.20;;;11.90;;
2570;SDS011;1295;51.130;6.732;2022-10-22T08:23:14;62.20;;;8.10;;
2570;SDS011;1295;51.130;6.732;2022-10-22T08:25:40;59.73;;;9.90;;
2570;SDS011;1295;51.130;6.732;2022-10-22T08:28:06;62.53;;;8.27;;
2570;SDS011;1295;51.130;6.732;2022-10-22T08:30:31;68.70;;;10.93;;
2570;SDS011;1295;51.130;6.732;2022-10-22T08:32:57;61.10;;;10.23;;
2570;SDS011;1295;51.130;6.732;2022-10-22T08:35:23;61.00;;;10.70;;
2570;SDS011;1295;51.130;6.732;2022-10-22T08:37:49;55.20;;;9.70;;
2570;SDS011;1295;51.130;6.732;2022-10-22T08:40:21;56.90;;;9.30;;
2570;SDS011;1295;51.130;6.732;2022-10-22T08:43:00;60.10;;;10.00;;
2570;SDS011;1295;51.130;6.732;2022-10-22T08:45:26;58.00;;;9.50;;
2570;SDS011;1295;51.130;6.732;2022-10-22T08:50:40;66.60;;;10.00;;
2570;SDS011;1295;51.130;6.732;2022-10-22T08:53:04;61.47;;;9.40;;
2570;SDS011;1295;51.130;6.732;2022-10-22T08:55:29;58.43;;;10.93;;
2570;SDS011;1295;51.130;6.732;2022-10-22T08:58:14;59.67;;;11.07;;
2570;SDS011;1295;51.130;6.732;2022-10-22T09:00:43;59.90;;;8.03;;
2570;SDS011;1295;51.130;6.732;2022-10-22T09:03:23;61.87;;;12.87;;
2570;SDS011;1295;51.130;6.732;2022-10-22T09:05:55;62.00;;;20.77;;
2570;SDS011;1295;51.130;6.732;2022-10-22T09:08:26;58.90;;;15.13;;
2570;SDS011;1295;51.130;6.732;2022-10-22T09:10:55;60.17;;;11.07;;
2570;SDS011;1295;51.130;6.732;2022-10-22T09:13:19;69.60;;;17.70;;
2570;SDS011;1295;51.130;6.732;2022-10-22T09:15:46;61.87;;;21.00;;
2570;SDS011;1295;51.130;6.732;2022-10-22T09:18:21;59.00;;;20.10;;
2570;SDS011;1295;51.130;6.732;2022-10-22T09:20:48;60.13;;;22.60;;
2570;SDS011;1295;51.130;6.732;2022-10-22T09:25:57;58.90;;;15.50;;
2570;SDS011;1295;51.130;6.732;2022-10-22T09:28:22;64.30;;;29.43;;
2570;SDS011;1295;51.130;6.732;2022-10-22T09:30:48;61.43;;;16.23;;
2570;SDS011;1295;51.130;6.732;2022-10-22T09:33:16;81.30;;;70.63;;
2570;SDS011;1295;51.130;6.732;2022-10-22T09:35:47;68.33;;;40.83;;
2570;SDS011;1295;51.130;6.732;2022-10-22T09:38:12;67.23;;;40.00;;
2570;SDS011;1295;51.130;6.732;2022-10-22T09:40:41;64.63;;;37.83;;
2570;SDS011;1295;51.130;6.732;2022-10-22T09:43:08;66.53;;;31.07;;
2570;SDS011;1295;51.130;6.732;2022-10-22T09:45:32;65.57;;;23.10;;
2570;SDS011;1295;51.130;6.732;2022-10-22T09:48:08;68.50;;;43.03;;
2570;SDS011;1295;51.130;6.732;2022-10-22T09:53:05;65.47;;;29.33;;
2570;SDS011;1295;51.130;6.732;2022-10-22T09:55:29;59.70;;;19.37;;
2570;SDS011;1295;51.130;6.732;2022-10-22T09:57:56;64.50;;;30.77;;
2570;SDS011;1295;51.130;6.732;2022-10-22T10:00:20;70.27;;;43.93;;
2570;SDS011;1295;51.130;6.732;2022-10-22T10:02:46;63.23;;;23.00;;
2570;SDS011;1295;51.130;6.732;2022-10-22T10:05:18;63.17;;;27.47;;
2570;SDS011;1295;51.130;6.732;2022-10-22T10:07:43;66.23;;;35.07;;
2570;SDS011;1295;51.130;6.732;2022-10-22T10:10:16;63.33;;;32.23;;
2570;SDS011;1295;51.130;6.732;2022-10-22T10:12:43;63.70;;;37.73;;
2570;SDS011;1295;51.130;6.732;2022-10-22T10:15:23;67.73;;;41.07;;
2570;SDS011;1295;51.130;6.732;2022-10-22T10:18:13;66.10;;;33.73;;
2570;SDS011;1295;51.130;6.732;2022-10-22T10:23:28;65.60;;;37.77;;
2570;SDS011;1295;51.130;6.732;2022-10-22T10:26:13;73.93;;;50.87;;
2570;SDS011;1295;51.130;6.732;2022-10-22T10:28:40;66.87;;;41.47;;
2570;SDS011;1295;51.130;6.732;2022-10-22T10:34:13;65.53;;;26.67;;
2570;SDS011;1295;51.130;6.732;2022-10-22T10:36:23;63.17;;;33.57;;
2570;SDS011;1295;51.130;6.732;2022-10-22T10:39:07;60.20;;;8.03;;
2570;SDS011;1295;51.130;6.732;2022-10-22T10:41:41;62.07;;;12.43;;
2570;SDS011;1295;51.130;6.732;2022-10-22T10:44:24;62.83;;;28.60;;
2570;SDS011;1295;51.130;6.732;2022-10-22T10:46:54;62.80;;;15.13;;
2570;SDS011;1295;51.130;6.732;2022-10-22T10:49:23;58.73;;;21.07;;
2570;SDS011;1295;51.130;6.732;2022-10-22T10:54:40;62.93;;;30.50;;
2570;SDS011;1295;51.130;6.732;2022-10-22T10:57:10;62.10;;;25.87;;
2570;SDS011;1295;51.130;6.732;2022-10-22T10:59:37;67.27;;;15.00;;
2570;SDS011;1295;51.130;6.732;2022-10-22T11:05:53;65.23;;;16.93;;
2570;SDS011;1295;51.130;6.732;2022-10-22T11:07:44;60.30;;;12.37;;
2570;SDS011;1295;51.130;6.732;2022-10-22T11:10:26;56.17;;;11.23;;
2570;SDS011;1295;51.130;6.732;2022-10-22T11:12:51;69.30;;;37.00;;
2570;SDS011;1295;51.130;6.732;2022-10-22T11:15:26;69.50;;;19.17;;
2570;SDS011;1295;51.130;6.732;2022-10-22T11:17:55;59.57;;;14.13;;
2570;SDS011;1295;51.130;6.732;2022-10-22T11:20:32;59.47;;;19.73;;
2570;SDS011;1295;51.130;6.732;2022-10-22T11:23:04;57.77;;;15.53;;
2570;SDS011;1295;51.130;6.732;2022-10-22T11:25:28;56.97;;;11.10;;
2570;SDS011;1295;51.130;6.732;2022-10-22T11:30:27;56.10;;;8.27;;
2570;SDS011;1295;51.130;6.732;2022-10-22T11:32:52;56.43;;;8.33;;
2570;SDS011;1295;51.130;6.732;2022-10-22T11:35:19;57.90;;;16.83;;
2570;SDS011;1295;51.130;6.732;2022-10-22T11:37:43;63.77;;;17.27;;
2570;SDS011;1295;51.130;6.732;2022-10-22T11:40:15;62.10;;;23.63;;
2570;SDS011;1295;51.130;6.732;2022-10-22T11:42:40;57.33;;;9.53;;
2570;SDS011;1295;51.130;6.732;2022-10-22T11:45:25;63.20;;;8.70;;
2570;SDS011;1295;51.130;6.732;2022-10-22T11:47:34;61.93;;;16.93;;
2570;SDS011;1295;51.130;6.732;2022-10-22T11:50:15;56.07;;;8.47;;
2570;SDS011;1295;51.130;6.732;2022-10-22T11:52:39;66.13;;;6.07;;
2570;SDS011;1295;51.130;6.732;2022-10-22T11:55:10;67.43;;;20.73;;
2570;SDS011;1295;51.130;6.732;2022-10-22T11:57:35;58.40;;;9.63;;
2570;SDS011;1295;51.130;6.732;2022-10-22T12:00:00;57.87;;;6.40;;
2570;SDS011;1295;51.130;6.732;2022-10-22T12:02:31;65.10;;;22.80;;
2570;SDS011;1295;51.130;6.732;2022-10-22T12:07:47;57.27;;;7.40;;
2570;SDS011;1295;51.130;6.732;2022-10-22T12:10:03;60.03;;;26.60;;
2570;SDS011;1295;51.130;6.732;2022-10-22T12:12:26;60.17;;;17.13;;
2570;SDS011;1295;51.130;6.732;2022-10-22T12:14:55;55.60;;;5.60;;
2570;SDS011;1295;51.130;6.732;2022-10-22T12:17:19;60.20;;;10.80;;
2570;SDS011;1295;51.130;6.732;2022-10-22T12:19:46;58.87;;;9.33;;
2570;SDS011;1295;51.130;6.732;2022-10-22T12:22:13;57.07;;;5.93;;
2570;SDS011;1295;51.130;6.732;2022-10-22T12:24:39;62.47;;;14.80;;
2570;SDS011;1295;51.130;6.732;2022-10-22T12:27:14;61.13;;;5.73;;
2570;SDS011;1295;51.130;6.732;2022-10-22T12:29:31;61.30;;;10.70;;
2570;SDS011;1295;51.130;6.732;2022-10-22T12:31:55;58.40;;;10.23;;
2570;SDS011;1295;51.130;6.732;2022-10-22T12:34:22;56.73;;;8.30;;
2570;SDS011;1295;51.130;6.732;2022-10-22T12:36:48;61.30;;;12.53;;
2570;SDS011;1295;51.130;6.732;2022-10-22T12:39:14;58.10;;;12.47;;
2570;SDS011;1295;51.130;6.732;2022-10-22T12:41:38;58.20;;;9.30;;
2570;SDS011;1295;51.130;6.732;2022-10-22T12:44:04;60.77;;;9.50;;
2570;SDS011;1295;51.130;6.732;2022-10-22T12:46:32;71.30;;;41.00;;
2570;SDS011;1295;51.130;6.732;2022-10-22T12:48:58;61.40;;;16.63;;
2570;SDS011;1295;51.130;6.732;2022-10-22T12:51:24;63.07;;;12.40;;
2570;SDS011;1295;51.130;6.732;2022-10-22T12:53:51;58.90;;;13.83;;
2570;SDS011;1295;51.130;6.732;2022-10-22T12:56:20;60.50;;;12.50;;
2570;SDS011;1295;51.130;6.732;2022-10-22T12:58:46;63.87;;;12.30;;
2570;SDS011;1295;51.130;6.732;2022-10-22T13:01:11;70.70;;;30.20;;
2570;SDS011;1295;51.130;6.732;2022-10-22T13:03:40;58.57;;;17.03;;
2570;SDS011;1295;51.130;6.732;2022-10-22T13:06:20;56.63;;;12.20;;
2570;SDS011;1295;51.130;6.732;2022-10-22T13:09:06;62.37;;;7.60;;
2570;SDS011;1295;51.130;6.732;2022-10-22T13:11:33;57.13;;;10.40;;
2570;SDS011;1295;51.130;6.732;2022-10-22T13:14:03;58.47;;;10.00;;
2570;SDS011;1295;51.130;6.732;2022-10-22T13:16:27;65.27;;;24.97;;
2570;SDS011;1295;51.130;6.732;2022-10-22T13:18:54;68.37;;;20.83;;
2570;SDS011;1295;51.130;6.732;2022-10-22T13:21:21;59.10;;;12.37;;
2570;SDS011;1295;51.130;6.732;2022-10-22T13:23:58;60.10;;;13.63;;
2570;SDS011;1295;51.130;6.732;2022-10-22T13:26:24;61.50;;;21.37;;
2570;SDS011;1295;51.130;6.732;2022-10-22T13:28:50;64.20;;;16.27;;
2570;SDS011;1295;51.130;6.732;2022-10-22T13:31:17;64.83;;;25.10;;
2570;SDS011;1295;51.130;6.732;2022-10-22T13:33:43;66.73;;;20.33;;
2570;SDS011;1295;51.130;6.732;2022-10-22T13:36:12;64.60;;;29.40;;
2570;SDS011;1295;51.130;6.732;2022-10-22T13:38:41;62.37;;;23.97;;
2570;SDS011;1295;51.130;6.732;2022-10-22T13:43:43;80.23;;;11.30;;
2570;SDS011;1295;51.130;6.732;2022-10-22T13:46:08;66.40;;;24.77;;
2570;SDS011;1295;51.130;6.732;2022-10-22T13:48:34;59.90;;;19.30;;
2570;SDS011;1295;51.130;6.732;2022-10-22T13:51:00;58.50;;;14.03;;
2570;SDS011;1295;51.130;6.732;2022-10-22T13:53:26;62.77;;;20.63;;
2570;SDS011;1295;51.130;6.732;2022-10-22T13:55:51;66.67;;;24.57;;
2570;SDS011;1295;51.130;6.732;2022-10-22T13:58:17;59.50;;;15.87;;
2570;SDS011;1295;51.130;6.732;2022-10-22T14:00:43;63.20;;;14.77;;
2570;SDS011;1295;51.130;6.732;2022-10-22T14:03:09;59.30;;;19.30;;
2570;SDS011;1295;51.130;6.732;2022-10-22T14:05:34;63.27;;;17.40;;
2570;SDS011;1295;51.130;6.732;2022-10-22T14:08:00;62.20;;;22.10;;
2570;SDS011;1295;51.130;6.732;2022-10-22T14:10:26;61.47;;;23.40;;
2570;SDS011;1295;51.130;6.732;2022-10-22T14:12:52;66.90;;;24.47;;
2570;SDS011;1295;51.130;6.732;2022-10-22T14:15:18;63.43;;;24.13;;
2570;SDS011;1295;51.130;6.732;2022-10-22T14:17:44;61.83;;;20.97;;
2570;SDS011;1295;51.130;6.732;2022-10-22T14:20:13;63.77;;;13.47;;
2570;SDS011;1295;51.130;6.732;2022-10-22T14:22:38;62.27;;;26.13;;
2570;SDS011;1295;51.130;6.732;2022-10-22T14:25:04;55.40;;;5.50;;
2570;SDS011;1295;51.130;6.732;2022-10-22T14:27:30;61.40;;;23.40;;
2570;SDS011;1295;51.130;6.732;2022-10-22T14:29:57;64.57;;;19.57;;
2570;SDS011;1295;51.130;6.732;2022-10-22T14:32:23;61.47;;;19.13;;
2570;SDS011;1295;51.130;6.732;2022-10-22T14:34:49;62.27;;;26.27;;
2570;SDS011;1295;51.130;6.732;2022-10-22T14:37:16;60.93;;;21.57;;
2570;SDS011;1295;51.130;6.732;2022-10-22T14:39:41;64.97;;;21.03;;
2570;SDS011;1295;51.130;6.732;2022-10-22T14:42:08;58.67;;;16.60;;
2570;SDS011;1295;51.130;6.732;2022-10-22T14:44:32;64.53;;;24.57;;
2570;SDS011;1295;51.130;6.732;2022-10-22T14:46:58;61.03;;;14.53;;
2570;SDS011;1295;51.130;6.732;2022-10-22T14:49:24;60.70;;;22.43;;
2570;SDS011;1295;51.130;6.732;2022-10-22T14:51:49;60.40;;;15.87;;
2570;SDS011;1295;51.130;6.732;2022-10-22T14:54:15;65.80;;;30.23;;
2570;SDS011;1295;51.130;6.732;2022-10-22T14:56:41;63.30;;;28.83;;
2570;SDS011;1295;51.130;6.732;2022-10-22T14:59:06;70.30;;;23.30;;
2570;SDS011;1295;51.130;6.732;2022-10-22T15:01:32;60.10;;;20.50;;
2570;SDS011;1295;51.130;6.732;2022-10-22T15:03:58;65.20;;;24.90;;
2570;SDS011;1295;51.130;6.732;2022-10-22T15:06:23;61.10;;;22.40;;
2570;SDS011;1295;51.130;6.732;2022-10-22T15:08:49;65.40;;;22.93;;
2570;SDS011;1295;51.130;6.732;2022-10-22T15:11:14;62.83;;;27.00;;
2570;SDS011;1295;51.130;6.732;2022-10-22T15:13:40;60.17;;;18.33;;
2570;SDS011;1295;51.130;6.732;2022-10-22T15:16:07;63.87;;;15.70;;
2570;SDS011;1295;51.130;6.732;2022-10-22T15:18:33;59.40;;;17.50;;
2570;SDS011;1295;51.130;6.732;2022-10-22T15:21:00;58.83;;;18.47;;
2570;SDS011;1295;51.130;6.732;2022-10-22T15:23:25;60.07;;;19.10;;
2570;SDS011;1295;51.130;6.732;2022-10-22T15:25:50;61.20;;;14.60;;